sensor_id;sensor_type;location;lat;lon;timestamp;temperature;humidity
16321;DHT22;8269;50.990;4.494;2023-09-07T07:30:19;25.40;99.90
16321;DHT22;8269;50.990;4.494;2023-09-07T07:32:45;25.60;99.90
16321;DHT22;8269;50.990;4.494;2023-09-07T07:35:10;25.60;99.90
16321;DHT22;8269;50.990;4.494;2023-09-07T07:37:36;25.50;99.90
16321;DHT22;8269;50.990;4.494;2023-09-07T07:40:03;25.70;99.90
16321;DHT22;8269;50.990;4.494;2023-09-07T07:42:29;25.70;99.90
16321;DHT22;8269;50.990;4.494;2023-09-07T07:44:55;25.90;99.90
16321;DHT22;8269;50.990;4.494;2023-09-07T07:47:21;25.80;99.90
16321;DHT22;8269;50.990;4.494;2023-09-07T07:49:46;26.10;99.90
16321;DHT22;8269;50.990;4.494;2023-09-07T07:52:12;26.20;99.90
16321;DHT22;8269;50.990;4.494;2023-09-07T07:54:38;26.50;99.90
16321;DHT22;8269;50.990;4.494;2023-09-07T07:57:03;26.90;99.90
16321;DHT22;8269;50.990;4.494;2023-09-07T07:59:29;26.70;99.90
16321;DHT22;8269;50.990;4.494;2023-09-07T08:01:55;26.60;99.90
16321;DHT22;8269;50.990;4.494;2023-09-07T08:04:23;27.00;99.90
16321;DHT22;8269;50.990;4.494;2023-09-07T08:06:49;27.30;99.90
16321;DHT22;8269;50.990;4.494;2023-09-07T08:09:14;27.50;99.90
16321;DHT22;8269;50.990;4.494;2023-09-07T08:11:40;27.50;99.90
16321;DHT22;8269;50.990;4.494;2023-09-07T08:14:06;27.30;99.90
16321;DHT22;8269;50.990;4.494;2023-09-07T08:16:31;27.40;99.90
16321;DHT22;8269;50.990;4.494;2023-09-07T08:18:57;27.30;99.90
16321;DHT22;8269;50.990;4.494;2023-09-07T08:21:22;27.50;99.90
16321;DHT22;8269;50.990;4.494;2023-09-07T08:23:48;27.60;99.90
16321;DHT22;8269;50.990;4.494;2023-09-07T08:26:14;27.50;99.90
16321;DHT22;8269;50.990;4.494;2023-09-07T08:28:40;27.50;99.90
16321;DHT22;8269;50.990;4.494;2023-09-07T08:31:05;27.40;99.90
16321;DHT22;8269;50.990;4.494;2023-09-07T08:33:32;27.50;99.90
16321;DHT22;8269;50.990;4.494;2023-09-07T08:36:00;27.80;99.90
16321;DHT22;8269;50.990;4.494;2023-09-07T08:38:26;27.70;99.90
16321;DHT22;8269;50.990;4.494;2023-09-07T08:40:54;28.00;99.90
16321;DHT22;8269;50.990;4.494;2023-09-07T08:43:23;28.10;99.90
16321;DHT22;8269;50.990;4.494;2023-09-07T08:46:07;28.10;99.90
16321;DHT22;8269;50.990;4.494;2023-09-07T08:48:35;28.00;99.90
16321;DHT22;8269;50.990;4.494;2023-09-07T08:51:02;28.00;99.90
16321;DHT22;8269;50.990;4.494;2023-09-07T08:53:30;28.30;99.90
16321;DHT22;8269;50.990;4.494;2023-09-07T08:56:06;28.40;99.90
16321;DHT22;8269;50.990;4.494;2023-09-07T08:58:36;28.40;99.90
16321;DHT22;8269;50.990;4.494;2023-09-07T09:01:01;28.30;99.90
16321;DHT22;8269;50.990;4.494;2023-09-07T09:03:27;28.10;99.90
16321;DHT22;8269;50.990;4.494;2023-09-07T09:05:55;28.10;99.90
16321;DHT22;8269;50.990;4.494;2023-09-07T09:08:21;28.20;99.90
16321;DHT22;8269;50.990;4.494;2023-09-07T09:10:59;28.50;99.90
16321;DHT22;8269;50.990;4.494;2023-09-07T09:13:31;28.30;99.90
16321;DHT22;8269;50.990;4.494;2023-09-07T09:15:59;28.50;99.90
16321;DHT22;8269;50.990;4.494;2023-09-07T09:18:26;28.40;99.90
16321;DHT22;8269;50.990;4.494;2023-09-07T09:20:56;27.60;99.90
16321;DHT22;8269;50.990;4.494;2023-09-07T09:23:21;27.50;99.90
16321;DHT22;8269;50.990;4.494;2023-09-07T09:25:50;27.10;99.90
16321;DHT22;8269;50.990;4.494;2023-09-07T09:28:16;26.90;99.90
16321;DHT22;8269;50.990;4.494;2023-09-07T09:30:42;26.70;99.90
16321;DHT22;8269;50.990;4.494;2023-09-07T09:33:11;26.60;99.90
16321;DHT22;8269;50.990;4.494;2023-09-07T09:35:37;26.50;99.90
16321;DHT22;8269;50.990;4.494;2023-09-07T09:38:03;26.50;99.90
16321;DHT22;8269;50.990;4.494;2023-09-07T09:40:31;26.40;99.90
16321;DHT22;8269;50.990;4.494;2023-09-07T09:42:57;26.40;99.90
16321;DHT22;8269;50.990;4.494;2023-09-07T09:45:26;26.50;99.90
16321;DHT22;8269;50.990;4.494;2023-09-07T09:47:54;26.60;99.90
16321;DHT22;8269;50.990;4.494;2023-09-07T09:50:25;26.60;99.90
16321;DHT22;8269;50.990;4.494;2023-09-07T09:52:52;26.60;99.90
16321;DHT22;8269;50.990;4.494;2023-09-07T09:55:18;26.70;99.90
16321;DHT22;8269;50.990;4.494;2023-09-07T09:57:44;26.60;99.90
16321;DHT22;8269;50.990;4.494;2023-09-07T10:00:10;26.60;99.90
16321;DHT22;8269;50.990;4.494;2023-09-07T10:03:33;26.70;99.90
16321;DHT22;8269;50.990;4.494;2023-09-07T10:06:09;26.70;99.90
16321;DHT22;8269;50.990;4.494;2023-09-07T10:08:35;26.80;99.90
16321;DHT22;8269;50.990;4.494;2023-09-07T10:11:07;26.70;99.90
16321;DHT22;8269;50.990;4.494;2023-09-07T10:13:33;26.60;99.90
16321;DHT22;8269;50.990;4.494;2023-09-07T10:16:04;26.60;99.90
16321;DHT22;8269;50.990;4.494;2023-09-07T10:18:41;26.60;99.90
16321;DHT22;8269;50.990;4.494;2023-09-07T10:21:09;26.70;99.90
16321;DHT22;8269;50.990;4.494;2023-09-07T10:23:38;26.70;99.90
16321;DHT22;8269;50.990;4.494;2023-09-07T10:26:24;26.70;99.90
16321;DHT22;8269;50.990;4.494;2023-09-07T10:29:00;26.80;99.90
16321;DHT22;8269;50.990;4.494;2023-09-07T10:31:27;26.90;99.90
16321;DHT22;8269;50.990;4.494;2023-09-07T10:33:53;26.90;99.90
16321;DHT22;8269;50.990;4.494;2023-09-07T10:36:23;27.00;99.90
16321;DHT22;8269;50.990;4.494;2023-09-07T10:38:49;27.00;99.90
16321;DHT22;8269;50.990;4.494;2023-09-07T10:41:15;27.00;99.90
16321;DHT22;8269;50.990;4.494;2023-09-07T10:43:53;27.00;99.90
16321;DHT22;8269;50.990;4.494;2023-09-07T10:46:22;27.00;99.90
16321;DHT22;8269;50.990;4.494;2023-09-07T10:48:50;27.00;99.90
16321;DHT22;8269;50.990;4.494;2023-09-07T10:51:19;26.90;99.90
16321;DHT22;8269;50.990;4.494;2023-09-07T10:53:45;27.00;99.90
16321;DHT22;8269;50.990;4.494;2023-09-07T10:56:11;27.00;99.90
16321;DHT22;8269;50.990;4.494;2023-09-07T10:58:37;27.10;99.90
16321;DHT22;8269;50.990;4.494;2023-09-07T11:01:08;27.00;99.90
16321;DHT22;8269;50.990;4.494;2023-09-07T11:03:35;27.10;99.90
16321;DHT22;8269;50.990;4.494;2023-09-07T11:06:16;27.10;99.90
16321;DHT22;8269;50.990;4.494;2023-09-07T11:08:48;27.20;99.90
16321;DHT22;8269;50.990;4.494;2023-09-07T11:11:14;27.30;99.90
16321;DHT22;8269;50.990;4.494;2023-09-07T11:13:40;27.30;99.90
16321;DHT22;8269;50.990;4.494;2023-09-07T11:16:08;27.30;99.90
16321;DHT22;8269;50.990;4.494;2023-09-07T11:18:35;27.20;99.90
16321;DHT22;8269;50.990;4.494;2023-09-07T11:21:03;27.30;99.90
16321;DHT22;8269;50.990;4.494;2023-09-07T11:23:33;27.30;99.90
16321;DHT22;8269;50.990;4.494;2023-09-07T11:26:13;27.30;99.90
16321;DHT22;8269;50.990;4.494;2023-09-07T11:28:41;27.40;99.90
16321;DHT22;8269;50.990;4.494;2023-09-07T11:31:08;27.40;99.90
16321;DHT22;8269;50.990;4.494;2023-09-07T11:33:34;27.40;99.90
16321;DHT22;8269;50.990;4.494;2023-09-07T11:36:00;27.50;99.90
16321;DHT22;8269;50.990;4.494;2023-09-07T11:38:35;27.50;99.90
16321;DHT22;8269;50.990;4.494;2023-09-07T11:41:00;27.60;99.90
16321;DHT22;8269;50.990;4.494;2023-09-07T11:43:26;27.60;99.90
16321;DHT22;8269;50.990;4.494;2023-09-07T11:45:52;27.70;99.90
16321;DHT22;8269;50.990;4.494;2023-09-07T11:48:17;27.70;99.90
16321;DHT22;8269;50.990;4.494;2023-09-07T11:50:43;27.70;99.90
16321;DHT22;8269;50.990;4.494;2023-09-07T11:53:09;27.70;99.90
16321;DHT22;8269;50.990;4.494;2023-09-07T11:55:35;27.70;99.90
16321;DHT22;8269;50.990;4.494;2023-09-07T11:58:02;27.70;99.90
16321;DHT22;8269;50.990;4.494;2023-09-07T12:00:28;27.80;99.90
16321;DHT22;8269;50.990;4.494;2023-09-07T12:02:55;27.80;99.90
16321;DHT22;8269;50.990;4.494;2023-09-07T12:05:20;27.80;99.90
16321;DHT22;8269;50.990;4.494;2023-09-07T12:07:46;27.80;99.90
16321;DHT22;8269;50.990;4.494;2023-09-07T12:10:12;27.80;99.90
16321;DHT22;8269;50.990;4.494;2023-09-07T12:12:43;27.90;99.90
16321;DHT22;8269;50.990;4.494;2023-09-07T12:15:09;27.90;99.90
16321;DHT22;8269;50.990;4.494;2023-09-07T12:17:39;27.90;99.90
16321;DHT22;8269;50.990;4.494;2023-09-07T12:20:05;28.00;99.90
16321;DHT22;8269;50.990;4.494;2023-09-07T12:22:34;28.10;99.90
16321;DHT22;8269;50.990;4.494;2023-09-07T12:25:01;28.10;99.90
16321;DHT22;8269;50.990;4.494;2023-09-07T12:27:27;28.10;99.90
16321;DHT22;8269;50.990;4.494;2023-09-07T12:29:53;28.10;99.90
16321;DHT22;8269;50.990;4.494;2023-09-07T12:32:19;28.10;99.90
16321;DHT22;8269;50.990;4.494;2023-09-07T12:34:44;28.10;99.90
16321;DHT22;8269;50.990;4.494;2023-09-07T12:37:10;28.10;99.90
16321;DHT22;8269;50.990;4.494;2023-09-07T12:39:36;28.10;99.90
16321;DHT22;8269;50.990;4.494;2023-09-07T12:42:02;28.00;99.90
16321;DHT22;8269;50.990;4.494;2023-09-07T12:44:28;28.00;99.90
16321;DHT22;8269;50.990;4.494;2023-09-07T12:46:54;28.00;99.90
16321;DHT22;8269;50.990;4.494;2023-09-07T12:49:20;28.00;99.90
16321;DHT22;8269;50.990;4.494;2023-09-07T12:51:46;28.10;99.90
16321;DHT22;8269;50.990;4.494;2023-09-07T12:54:12;28.10;99.90
16321;DHT22;8269;50.990;4.494;2023-09-07T12:56:38;28.10;99.90
16321;DHT22;8269;50.990;4.494;2023-09-07T12:59:05;28.20;99.90
16321;DHT22;8269;50.990;4.494;2023-09-07T13:01:30;28.20;99.90
16321;DHT22;8269;50.990;4.494;2023-09-07T13:03:57;28.30;99.90
16321;DHT22;8269;50.990;4.494;2023-09-07T13:06:22;28.30;99.90
16321;DHT22;8269;50.990;4.494;2023-09-07T13:08:49;28.30;99.90
16321;DHT22;8269;50.990;4.494;2023-09-07T13:11:14;28.30;99.90
16321;DHT22;8269;50.990;4.494;2023-09-07T13:13:40;28.30;99.90
16321;DHT22;8269;50.990;4.494;2023-09-07T13:16:05;28.30;99.90
16321;DHT22;8269;50.990;4.494;2023-09-07T13:18:31;28.30;99.90
16321;DHT22;8269;50.990;4.494;2023-09-07T13:20:57;28.30;99.90
16321;DHT22;8269;50.990;4.494;2023-09-07T13:23:27;28.30;99.90
16321;DHT22;8269;50.990;4.494;2023-09-07T13:25:54;28.30;99.90
16321;DHT22;8269;50.990;4.494;2023-09-07T13:28:19;28.30;99.90
16321;DHT22;8269;50.990;4.494;2023-09-07T13:30:45;28.30;99.90
16321;DHT22;8269;50.990;4.494;2023-09-07T13:33:11;28.20;99.90
16321;DHT22;8269;50.990;4.494;2023-09-07T13:35:36;28.40;99.90
16321;DHT22;8269;50.990;4.494;2023-09-07T13:38:02;28.40;99.90
16321;DHT22;8269;50.990;4.494;2023-09-07T13:40:28;28.40;99.90
16321;DHT22;8269;50.990;4.494;2023-09-07T13:42:55;28.40;99.90
16321;DHT22;8269;50.990;4.494;2023-09-07T13:45:21;28.50;99.90
16321;DHT22;8269;50.990;4.494;2023-09-07T13:47:47;28.40;99.90
16321;DHT22;8269;50.990;4.494;2023-09-07T13:50:13;28.40;99.90
16321;DHT22;8269;50.990;4.494;2023-09-07T13:52:39;28.40;99.90
16321;DHT22;8269;50.990;4.494;2023-09-07T13:55:05;28.50;99.90
16321;DHT22;8269;50.990;4.494;2023-09-07T13:57:32;28.50;99.90
16321;DHT22;8269;50.990;4.494;2023-09-07T13:59:58;28.60;99.90
16321;DHT22;8269;50.990;4.494;2023-09-07T14:02:24;28.60;99.90
16321;DHT22;8269;50.990;4.494;2023-09-07T14:04:50;28.60;99.90
16321;DHT22;8269;50.990;4.494;2023-09-07T14:07:15;28.60;99.90
16321;DHT22;8269;50.990;4.494;2023-09-07T14:09:41;28.60;99.90
16321;DHT22;8269;50.990;4.494;2023-09-07T14:12:07;28.60;99.90
16321;DHT22;8269;50.990;4.494;2023-09-07T14:14:32;28.70;99.90
16321;DHT22;8269;50.990;4.494;2023-09-07T14:16:58;28.70;99.90
16321;DHT22;8269;50.990;4.494;2023-09-07T14:19:26;28.70;99.50
16321;DHT22;8269;50.990;4.494;2023-09-07T14:21:57;28.60;99.70
16321;DHT22;8269;50.990;4.494;2023-09-07T14:24:23;28.70;99.90
16321;DHT22;8269;50.990;4.494;2023-09-07T14:26:49;28.70;99.90
16321;DHT22;8269;50.990;4.494;2023-09-07T14:29:15;28.70;99.90
16321;DHT22;8269;50.990;4.494;2023-09-07T14:31:40;28.70;99.90
16321;DHT22;8269;50.990;4.494;2023-09-07T14:34:08;28.70;99.90
16321;DHT22;8269;50.990;4.494;2023-09-07T14:36:34;28.70;99.90
16321;DHT22;8269;50.990;4.494;2023-09-07T14:38:59;28.70;99.90
16321;DHT22;8269;50.990;4.494;2023-09-07T14:41:25;28.70;99.90
16321;DHT22;8269;50.990;4.494;2023-09-07T14:43:52;28.60;99.90
16321;DHT22;8269;50.990;4.494;2023-09-07T14:46:19;28.60;99.90
16321;DHT22;8269;50.990;4.494;2023-09-07T14:48:44;28.60;99.90
16321;DHT22;8269;50.990;4.494;2023-09-07T14:51:13;28.70;99.90
16321;DHT22;8269;50.990;4.494;2023-09-07T14:53:38;28.70;99.90
16321;DHT22;8269;50.990;4.494;2023-09-07T14:56:04;28.70;99.90
16321;DHT22;8269;50.990;4.494;2023-09-07T14:58:30;28.70;99.90
16321;DHT22;8269;50.990;4.494;2023-09-07T15:00:55;28.70;99.90
16321;DHT22;8269;50.990;4.494;2023-09-07T15:03:21;28.70;99.90
16321;DHT22;8269;50.990;4.494;2023-09-07T15:05:47;28.70;99.90
16321;DHT22;8269;50.990;4.494;2023-09-07T15:08:12;28.70;99.90
16321;DHT22;8269;50.990;4.494;2023-09-07T15:10:38;28.70;99.90
16321;DHT22;8269;50.990;4.494;2023-09-07T15:13:03;28.70;99.90
16321;DHT22;8269;50.990;4.494;2023-09-07T15:15:30;28.70;99.90
16321;DHT22;8269;50.990;4.494;2023-09-07T15:18:03;28.70;99.90
16321;DHT22;8269;50.990;4.494;2023-09-07T15:20:29;28.70;99.90
16321;DHT22;8269;50.990;4.494;2023-09-07T15:22:56;28.70;99.90
16321;DHT22;8269;50.990;4.494;2023-09-07T15:25:21;28.60;99.90
16321;DHT22;8269;50.990;4.494;2023-09-07T15:27:47;28.80;99.90
16321;DHT22;8269;50.990;4.494;2023-09-07T15:30:14;28.80;99.90
16321;DHT22;8269;50.990;4.494;2023-09-07T15:32:41;28.80;99.90
16321;DHT22;8269;50.990;4.494;2023-09-07T15:35:09;28.70;99.90
16321;DHT22;8269;50.990;4.494;2023-09-07T15:37:35;28.70;99.90
16321;DHT22;8269;50.990;4.494;2023-09-07T15:40:01;28.70;99.90
16321;DHT22;8269;50.990;4.494;2023-09-07T15:42:27;28.70;99.90
16321;DHT22;8269;50.990;4.494;2023-09-07T15:44:52;28.60;99.90
16321;DHT22;8269;50.990;4.494;2023-09-07T15:47:18;28.60;99.90
16321;DHT22;8269;50.990;4.494;2023-09-07T15:49:44;28.70;99.90
16321;DHT22;8269;50.990;4.494;2023-09-07T15:52:12;28.70;99.90
16321;DHT22;8269;50.990;4.494;2023-09-07T15:54:39;28.70;99.90
16321;DHT22;8269;50.990;4.494;2023-09-07T15:57:05;28.70;99.90
16321;DHT22;8269;50.990;4.494;2023-09-07T15:59:31;28.70;99.90
16321;DHT22;8269;50.990;4.494;2023-09-07T16:01:57;28.70;99.90
16321;DHT22;8269;50.990;4.494;2023-09-07T16:04:24;28.70;99.90
16321;DHT22;8269;50.990;4.494;2023-09-07T16:06:50;28.60;99.90
16321;DHT22;8269;50.990;4.494;2023-09-07T16:09:16;28.60;99.90
16321;DHT22;8269;50.990;4.494;2023-09-07T16:11:43;28.60;99.90
16321;DHT22;8269;50.990;4.494;2023-09-07T16:14:09;28.50;99.90
16321;DHT22;8269;50.990;4.494;2023-09-07T16:16:35;28.50;99.90
16321;DHT22;8269;50.990;4.494;2023-09-07T16:19:01;28.50;99.90
16321;DHT22;8269;50.990;4.494;2023-09-07T16:21:27;28.50;99.90
16321;DHT22;8269;50.990;4.494;2023-09-07T16:23:53;28.40;99.90
16321;DHT22;8269;50.990;4.494;2023-09-07T16:26:18;28.40;99.90
16321;DHT22;8269;50.990;4.494;2023-09-07T16:28:48;28.40;99.90
16321;DHT22;8269;50.990;4.494;2023-09-07T16:31:14;28.40;99.90
16321;DHT22;8269;50.990;4.494;2023-09-07T16:33:40;28.30;99.90
16321;DHT22;8269;50.990;4.494;2023-09-07T16:36:06;28.40;99.90
16321;DHT22;8269;50.990;4.494;2023-09-07T16:38:32;28.30;99.90
16321;DHT22;8269;50.990;4.494;2023-09-07T16:41:06;28.30;99.90
16321;DHT22;8269;50.990;4.494;2023-09-07T16:43:32;28.30;99.90
16321;DHT22;8269;50.990;4.494;2023-09-07T16:46:05;28.30;99.90
16321;DHT22;8269;50.990;4.494;2023-09-07T16:48:34;28.20;99.90
16321;DHT22;8269;50.990;4.494;2023-09-07T16:51:01;28.20;99.90
16321;DHT22;8269;50.990;4.494;2023-09-07T16:53:27;28.20;99.90
16321;DHT22;8269;50.990;4.494;2023-09-07T16:55:52;28.10;99.90
16321;DHT22;8269;50.990;4.494;2023-09-07T16:58:21;28.10;99.90
16321;DHT22;8269;50.990;4.494;2023-09-07T17:00:47;28.00;99.90
16321;DHT22;8269;50.990;4.494;2023-09-07T17:03:12;27.90;99.90
16321;DHT22;8269;50.990;4.494;2023-09-07T17:05:38;27.90;99.90
16321;DHT22;8269;50.990;4.494;2023-09-07T17:08:04;27.80;99.90
16321;DHT22;8269;50.990;4.494;2023-09-07T17:10:32;27.80;99.90
16321;DHT22;8269;50.990;4.494;2023-09-07T17:12:57;27.70;99.90
16321;DHT22;8269;50.990;4.494;2023-09-07T17:15:23;27.70;99.90
16321;DHT22;8269;50.990;4.494;2023-09-07T17:17:51;27.70;99.90
16321;DHT22;8269;50.990;4.494;2023-09-07T17:20:17;27.60;99.90
16321;DHT22;8269;50.990;4.494;2023-09-07T17:22:43;27.60;99.90
16321;DHT22;8269;50.990;4.494;2023-09-07T17:25:12;27.50;99.90
16321;DHT22;8269;50.990;4.494;2023-09-07T17:27:38;27.40;99.90
16321;DHT22;8269;50.990;4.494;2023-09-07T17:30:04;27.40;99.90
16321;DHT22;8269;50.990;4.494;2023-09-07T17:32:30;27.30;99.90
16321;DHT22;8269;50.990;4.494;2023-09-07T17:35:00;27.20;99.90
16321;DHT22;8269;50.990;4.494;2023-09-07T17:37:26;27.20;99.90
16321;DHT22;8269;50.990;4.494;2023-09-07T17:39:51;27.20;99.90
16321;DHT22;8269;50.990;4.494;2023-09-07T17:42:18;27.10;99.90
16321;DHT22;8269;50.990;4.494;2023-09-07T17:44:44;27.00;99.90
16321;DHT22;8269;50.990;4.494;2023-09-07T17:47:10;26.90;99.90
16321;DHT22;8269;50.990;4.494;2023-09-07T17:49:35;26.90;99.90
16321;DHT22;8269;50.990;4.494;2023-09-07T17:52:01;26.70;99.90
16321;DHT22;8269;50.990;4.494;2023-09-07T17:54:26;26.70;99.90
16321;DHT22;8269;50.990;4.494;2023-09-07T17:56:52;26.60;99.90
16321;DHT22;8269;50.990;4.494;2023-09-07T17:59:18;26.50;99.90
16321;DHT22;8269;50.990;4.494;2023-09-07T18:01:43;26.40;99.90
16321;DHT22;8269;50.990;4.494;2023-09-07T18:04:09;26.30;99.90
16321;DHT22;8269;50.990;4.494;2023-09-07T18:06:35;26.20;99.90
16321;DHT22;8269;50.990;4.494;2023-09-07T18:09:00;26.10;99.90
16321;DHT22;8269;50.990;4.494;2023-09-07T18:11:26;26.00;99.90
16321;DHT22;8269;50.990;4.494;2023-09-07T18:13:52;25.90;99.90
16321;DHT22;8269;50.990;4.494;2023-09-07T18:16:17;25.80;99.90
16321;DHT22;8269;50.990;4.494;2023-09-07T18:18:43;25.70;99.90
16321;DHT22;8269;50.990;4.494;2023-09-07T18:21:09;25.70;99.90
16321;DHT22;8269;50.990;4.494;2023-09-07T18:23:35;25.60;99.90
16321;DHT22;8269;50.990;4.494;2023-09-07T18:26:01;25.40;99.90
16321;DHT22;8269;50.990;4.494;2023-09-07T18:28:27;25.40;99.90
16321;DHT22;8269;50.990;4.494;2023-09-07T18:30:53;25.20;99.90
16321;DHT22;8269;50.990;4.494;2023-09-07T18:33:19;25.10;99.90
16321;DHT22;8269;50.990;4.494;2023-09-07T18:38:11;24.90;99.90
16321;DHT22;8269;50.990;4.494;2023-09-07T18:40:37;24.80;99.90
16321;DHT22;8269;50.990;4.494;2023-09-07T18:43:03;24.70;99.90
16321;DHT22;8269;50.990;4.494;2023-09-07T18:45:29;24.60;99.90
16321;DHT22;8269;50.990;4.494;2023-09-07T18:47:55;24.60;99.90
16321;DHT22;8269;50.990;4.494;2023-09-07T18:50:20;24.50;99.90
16321;DHT22;8269;50.990;4.494;2023-09-07T18:52:49;24.40;99.90
16321;DHT22;8269;50.990;4.494;2023-09-07T18:55:16;24.40;99.90
16321;DHT22;8269;50.990;4.494;2023-09-07T18:57:41;24.40;99.90
16321;DHT22;8269;50.990;4.494;2023-09-07T19:00:07;24.30;99.90
16321;DHT22;8269;50.990;4.494;2023-09-07T19:02:33;24.20;99.90
16321;DHT22;8269;50.990;4.494;2023-09-07T19:04:59;24.20;99.90
16321;DHT22;8269;50.990;4.494;2023-09-07T19:07:24;24.10;99.90
16321;DHT22;8269;50.990;4.494;2023-09-07T19:09:50;24.00;99.90
16321;DHT22;8269;50.990;4.494;2023-09-07T19:12:17;24.00;99.90
16321;DHT22;8269;50.990;4.494;2023-09-07T19:14:43;23.90;99.90
16321;DHT22;8269;50.990;4.494;2023-09-07T19:17:10;23.80;99.90
16321;DHT22;8269;50.990;4.494;2023-09-07T19:19:36;23.80;99.90
16321;DHT22;8269;50.990;4.494;2023-09-07T19:22:01;23.70;99.90
16321;DHT22;8269;50.990;4.494;2023-09-07T19:24:27;23.60;99.90
16321;DHT22;8269;50.990;4.494;2023-09-07T19:26:53;23.60;99.90
